createdAt,value
2022-09-15T00:02:10.717Z,25.66
2022-09-15T00:04:38.497Z,25.55
2022-09-15T00:07:07.595Z,25.51
2022-09-15T00:09:36.321Z,25.44
2022-09-15T00:12:04.356Z,25.43
2022-09-15T00:14:32.277Z,25.37
2022-09-15T00:16:59.923Z,25.33
2022-09-15T00:19:27.453Z,25.37
2022-09-15T00:21:55.164Z,25.40
2022-09-15T00:24:23.174Z,25.24
2022-09-15T00:26:51.047Z,25.18
2022-09-15T00:29:18.727Z,25.17
2022-09-15T00:31:46.507Z,25.04
2022-09-15T00:34:15.112Z,25.06
2022-09-15T00:36:45.323Z,25.08
2022-09-15T00:39:12.830Z,25.09
2022-09-15T00:41:41.894Z,25.02
2022-09-15T00:44:37.163Z,25.12
2022-09-15T00:47:19.124Z,25.06
2022-09-15T00:49:54.841Z,24.93
2022-09-15T00:52:36.993Z,24.96
2022-09-15T00:55:14.545Z,25.03
2022-09-15T00:58:07.748Z,25.03
2022-09-15T01:00:36.023Z,24.98
2022-09-15T01:03:04.884Z,24.93
2022-09-15T01:05:41.912Z,24.90
2022-09-15T01:08:21.064Z,24.89
2022-09-15T01:10:48.470Z,24.74
2022-09-15T01:13:15.980Z,24.79
2022-09-15T01:16:15.305Z,24.83
2022-09-15T01:19:12.424Z,25.01
2022-09-15T01:22:22.498Z,25.14
2022-09-15T01:25:04.651Z,25.18
2022-09-15T01:27:46.642Z,25.11
2022-09-15T01:30:14.358Z,24.98
2022-09-15T01:33:05.861Z,24.92
2022-09-15T01:35:54.803Z,24.88
2022-09-15T01:38:32.045Z,24.83
2022-09-15T01:41:04.403Z,24.77
2022-09-15T01:43:36.015Z,24.78
2022-09-15T01:46:05.180Z,24.77
2022-09-15T01:48:36.439Z,24.76
2022-09-15T01:51:07.258Z,24.74
2022-09-15T01:53:35.532Z,24.74
2022-09-15T01:56:12.731Z,24.69
2022-09-15T01:58:42.038Z,24.64
2022-09-15T02:01:34.302Z,24.70
2022-09-15T02:04:23.528Z,24.68
2022-09-15T02:07:14.054Z,24.55
2022-09-15T02:09:51.395Z,24.47
2022-09-15T02:12:34.342Z,24.43
2022-09-15T02:15:11.140Z,24.42
2022-09-15T02:17:43.507Z,24.42
2022-09-15T02:20:33.831Z,24.38
2022-09-15T02:23:08.937Z,24.33
2022-09-15T02:25:48.267Z,24.40
2022-09-15T02:28:30.315Z,24.42
2022-09-15T02:31:09.550Z,24.55
2022-09-15T02:33:43.195Z,24.59
2022-09-15T02:36:14.846Z,24.57
2022-09-15T02:38:53.540Z,24.58
2022-09-15T02:41:21.811Z,24.52
2022-09-15T02:43:50.343Z,24.53
2022-09-15T02:46:21.886Z,24.46
2022-09-15T02:48:49.264Z,24.53
2022-09-15T02:51:18.981Z,24.56
2022-09-15T02:53:55.093Z,24.55
2022-09-15T02:56:24.282Z,24.58
2022-09-15T02:58:52.287Z,24.56
2022-09-15T03:01:19.820Z,24.61
2022-09-15T03:03:47.741Z,24.64
2022-09-15T03:06:18.269Z,24.63
2022-09-15T03:08:56.155Z,24.62
2022-09-15T03:11:26.055Z,24.56
2022-09-15T03:13:55.849Z,24.61
2022-09-15T03:16:24.229Z,24.62
2022-09-15T03:19:02.899Z,24.60
2022-09-15T03:21:31.275Z,24.59
2022-09-15T03:23:59.605Z,24.63
2022-09-15T03:26:27.912Z,24.47
2022-09-15T03:28:55.501Z,24.28
2022-09-15T03:31:23.084Z,24.14
2022-09-15T03:33:51.465Z,24.05
2022-09-15T03:36:19.360Z,23.94
2022-09-15T03:38:46.918Z,23.92
2022-09-15T03:41:14.266Z,23.95
2022-09-15T03:43:42.539Z,23.97
2022-09-15T03:46:15.101Z,23.98
2022-09-15T03:48:42.914Z,23.86
2022-09-15T03:51:10.802Z,23.99
2022-09-15T03:53:40.392Z,24.02
2022-09-15T03:56:25.490Z,24.08
2022-09-15T03:58:54.310Z,24.13
2022-09-15T04:01:22.309Z,24.10
2022-09-15T04:03:51.509Z,24.03
2022-09-15T04:06:21.245Z,23.91
2022-09-15T04:08:50.956Z,23.77
2022-09-15T04:11:20.641Z,23.92
2022-09-15T04:13:49.256Z,23.88
2022-09-15T04:16:28.028Z,23.82
2022-09-15T04:18:56.447Z,23.83
2022-09-15T04:21:26.578Z,23.74
2022-09-15T04:23:55.041Z,23.87
2022-09-15T04:26:32.222Z,23.59
2022-09-15T04:29:04.184Z,23.43
2022-09-15T04:31:33.597Z,23.48
2022-09-15T04:34:02.142Z,23.55
2022-09-15T04:36:30.201Z,23.66
2022-09-15T04:39:04.145Z,23.65
2022-09-15T04:41:33.747Z,23.78
2022-09-15T04:44:01.876Z,23.85
2022-09-15T04:46:30.195Z,23.88
2022-09-15T04:48:58.178Z,23.85
2022-09-15T04:51:27.638Z,23.86
2022-09-15T04:53:55.651Z,23.86
2022-09-15T04:56:26.210Z,23.82
2022-09-15T04:59:02.476Z,23.87
2022-09-15T05:01:34.307Z,23.78
2022-09-15T05:04:04.382Z,23.71
2022-09-15T05:06:32.442Z,23.79
2022-09-15T05:09:00.034Z,23.80
2022-09-15T05:11:28.964Z,23.63
2022-09-15T05:13:57.213Z,23.67
2022-09-15T05:16:28.355Z,23.67
2022-09-15T05:18:59.630Z,23.74
2022-09-15T05:21:28.438Z,23.63
2022-09-15T05:23:56.733Z,23.61
2022-09-15T05:26:27.221Z,23.64
2022-09-15T05:28:56.639Z,23.71
2022-09-15T05:31:32.745Z,23.73
2022-09-15T05:34:05.933Z,23.74
2022-09-15T05:36:34.196Z,23.76
2022-09-15T05:39:02.667Z,23.76
2022-09-15T05:41:30.992Z,23.68
2022-09-15T05:43:59.430Z,23.76
2022-09-15T05:46:28.286Z,23.72
2022-09-15T05:48:58.434Z,23.68
2022-09-15T05:51:26.077Z,23.66
2022-09-15T05:53:54.014Z,23.55
2022-09-15T05:56:21.683Z,23.63
2022-09-15T05:58:50.135Z,23.64
2022-09-15T06:01:21.367Z,23.50
2022-09-15T06:03:50.151Z,23.50
2022-09-15T06:06:18.225Z,23.48
2022-09-15T06:08:52.781Z,23.46
2022-09-15T06:11:31.356Z,23.49
2022-09-15T06:14:04.018Z,23.48
2022-09-15T06:16:34.470Z,23.66
2022-09-15T06:19:02.743Z,23.61
2022-09-15T06:21:31.642Z,23.40
2022-09-15T06:24:02.064Z,23.57
2022-09-15T06:26:30.976Z,23.61
2022-09-15T06:29:01.070Z,23.72
2022-09-15T06:31:32.018Z,23.61
2022-09-15T06:34:00.918Z,23.74
2022-09-15T06:36:30.308Z,23.79
2022-09-15T06:38:58.990Z,23.71
2022-09-15T06:41:42.652Z,23.73
2022-09-15T06:44:19.941Z,23.78
2022-09-15T06:46:47.865Z,23.94
2022-09-15T06:49:16.129Z,24.10
2022-09-15T06:51:43.625Z,24.16
2022-09-15T06:54:12.369Z,24.33
2022-09-15T06:56:40.025Z,24.38
2022-09-15T06:59:08.101Z,24.37
2022-09-15T07:01:35.709Z,24.42
2022-09-15T07:04:06.234Z,24.64
2022-09-15T07:06:34.277Z,24.84
2022-09-15T07:09:04.904Z,24.95
2022-09-15T07:11:32.936Z,24.94
2022-09-15T07:14:01.226Z,25.09
2022-09-15T07:16:29.260Z,25.14
2022-09-15T07:18:59.449Z,25.27
2022-09-15T07:21:27.154Z,25.28
2022-09-15T07:23:57.731Z,25.40
2022-09-15T07:26:28.270Z,25.54
2022-09-15T07:28:58.395Z,25.62
2022-09-15T07:31:28.345Z,25.72
2022-09-15T07:33:56.109Z,25.82
2022-09-15T07:36:23.763Z,25.84
2022-09-15T07:38:51.594Z,25.94
2022-09-15T07:41:39.119Z,26.07
2022-09-15T07:44:08.463Z,26.16
2022-09-15T07:46:36.845Z,26.13
2022-09-15T07:49:05.495Z,26.21
2022-09-15T07:51:33.777Z,26.26
2022-09-15T07:54:01.437Z,26.37
2022-09-15T07:56:28.895Z,26.48
2022-09-15T07:58:57.237Z,26.64
2022-09-15T08:01:24.683Z,26.81
2022-09-15T08:03:53.054Z,26.88
2022-09-15T08:06:23.526Z,26.97
2022-09-15T08:08:56.367Z,27.07
2022-09-15T08:11:27.667Z,27.14
2022-09-15T08:14:02.814Z,27.26
2022-09-15T08:16:31.262Z,27.31
2022-09-15T08:19:02.318Z,27.40
2022-09-15T08:21:30.272Z,27.33
2022-09-15T08:24:00.125Z,27.39
2022-09-15T08:26:29.820Z,27.46
2022-09-15T08:28:58.228Z,27.61
2022-09-15T08:31:26.687Z,27.72
2022-09-15T08:33:55.746Z,27.80
2022-09-15T08:36:28.150Z,27.93
2022-09-15T08:38:56.015Z,27.97
2022-09-15T08:41:33.313Z,28.03
2022-09-15T08:44:31.071Z,28.06
2022-09-15T08:47:16.762Z,28.17
2022-09-15T08:50:08.385Z,28.33
2022-09-15T08:52:41.096Z,28.36
2022-09-15T08:55:29.664Z,28.44
2022-09-15T08:57:59.708Z,28.48
2022-09-15T09:00:30.009Z,28.66
2022-09-15T09:03:05.523Z,28.78
2022-09-15T09:05:46.226Z,28.85
2022-09-15T09:08:42.389Z,28.93
2022-09-15T09:11:52.380Z,29.04
2022-09-15T09:14:25.779Z,29.10
2022-09-15T09:17:11.440Z,29.16
2022-09-15T09:19:38.657Z,29.24
2022-09-15T09:22:13.661Z,29.25
2022-09-15T09:24:54.496Z,29.28
2022-09-15T09:27:26.929Z,29.35
2022-09-15T09:30:19.341Z,29.30
2022-09-15T09:33:12.506Z,29.25
2022-09-15T09:35:50.206Z,29.30
2022-09-15T09:38:28.717Z,29.26
2022-09-15T09:41:02.324Z,29.40
2022-09-15T09:43:33.151Z,29.44
2022-09-15T09:46:06.925Z,29.50
2022-09-15T09:48:36.493Z,29.53
2022-09-15T09:51:03.886Z,29.51
2022-09-15T09:53:38.097Z,29.51
2022-09-15T09:56:26.971Z,29.53
2022-09-15T09:58:55.658Z,29.53
2022-09-15T10:01:25.730Z,29.49
2022-09-15T10:04:13.805Z,29.52
2022-09-15T10:06:41.522Z,29.40
2022-09-15T10:09:19.900Z,29.48
2022-09-15T10:11:52.920Z,29.49
2022-09-15T10:14:21.993Z,29.59
2022-09-15T10:17:10.376Z,29.64
2022-09-15T10:19:51.064Z,29.60
2022-09-15T10:22:33.271Z,29.67
2022-09-15T10:25:22.061Z,29.70
2022-09-15T10:28:17.565Z,29.81
2022-09-15T10:31:16.718Z,29.80
2022-09-15T10:33:45.222Z,29.85
2022-09-15T10:36:28.585Z,29.95
2022-09-15T10:38:58.902Z,29.96
2022-09-15T10:41:37.642Z,29.99
2022-09-15T10:44:20.297Z,30.04
2022-09-15T10:47:02.809Z,29.98
2022-09-15T10:50:07.522Z,30.06
2022-09-15T10:52:56.582Z,30.07
2022-09-15T10:55:52.602Z,30.12
2022-09-15T10:58:34.736Z,30.21
2022-09-15T11:01:28.235Z,30.27
2022-09-15T11:04:13.315Z,30.25
2022-09-15T11:06:55.673Z,30.31
2022-09-15T11:09:43.664Z,30.32
2022-09-15T11:12:24.785Z,30.26
2022-09-15T11:15:13.413Z,30.35
2022-09-15T11:18:21.924Z,30.36
2022-09-15T11:21:07.851Z,30.31
2022-09-15T11:23:44.909Z,30.38
2022-09-15T11:26:28.482Z,30.39
2022-09-15T11:29:01.690Z,30.46
2022-09-15T11:31:41.476Z,30.42
2022-09-15T11:34:20.412Z,30.32
2022-09-15T11:37:17.126Z,30.31
2022-09-15T11:40:06.232Z,30.33
2022-09-15T11:42:42.484Z,30.22
2022-09-15T11:45:25.331Z,30.30
2022-09-15T11:48:15.604Z,30.36
2022-09-15T11:50:49.662Z,30.47
2022-09-15T11:53:27.818Z,30.49
2022-09-15T11:56:20.070Z,30.64
2022-09-15T11:59:16.097Z,30.65
2022-09-15T12:02:16.314Z,30.60
2022-09-15T12:05:08.183Z,30.56
2022-09-15T12:07:54.844Z,30.61
2022-09-15T12:10:52.072Z,30.64
2022-09-15T12:13:24.079Z,30.64
2022-09-15T12:15:55.707Z,30.67
2022-09-15T12:18:48.519Z,30.71
2022-09-15T12:22:02.572Z,30.68
2022-09-15T12:25:00.791Z,30.66
2022-09-15T12:27:28.882Z,30.74
2022-09-15T12:29:59.864Z,30.75
2022-09-15T12:32:27.861Z,30.68
2022-09-15T12:34:57.511Z,30.67
2022-09-15T12:37:30.864Z,30.55
2022-09-15T12:39:58.895Z,30.63
2022-09-15T12:42:31.565Z,30.64
2022-09-15T12:45:30.214Z,30.58
2022-09-15T12:48:08.451Z,30.59
2022-09-15T12:50:39.722Z,30.57
2022-09-15T12:53:22.838Z,30.54
2022-09-15T12:55:50.213Z,30.45
2022-09-15T12:58:22.395Z,30.45
2022-09-15T13:01:14.300Z,30.44
2022-09-15T13:06:27.018Z,30.46
2022-09-15T13:09:06.018Z,30.37
2022-09-15T13:14:36.157Z,30.43
2022-09-15T13:17:13.481Z,30.42
2022-09-15T13:19:46.993Z,30.39
2022-09-15T13:22:30.647Z,30.42
2022-09-15T13:25:16.619Z,30.46
2022-09-15T13:27:52.620Z,30.48
2022-09-15T13:31:17.299Z,30.50
2022-09-15T13:41:32.679Z,30.38
2022-09-15T13:44:22.501Z,30.45
2022-09-15T13:47:04.808Z,30.43
2022-09-15T13:49:40.888Z,30.52
2022-09-15T13:52:22.567Z,30.50
2022-09-15T13:55:14.811Z,30.59
2022-09-15T14:00:55.347Z,30.63
2022-09-15T14:03:27.696Z,30.65
2022-09-15T14:05:56.947Z,30.60
2022-09-15T14:08:32.668Z,30.67
2022-09-15T14:11:06.514Z,30.72
2022-09-15T14:13:37.560Z,30.56
2022-09-15T14:16:12.584Z,30.61
2022-09-15T14:18:46.192Z,30.46
2022-09-15T14:21:18.618Z,30.43
2022-09-15T14:23:48.033Z,30.50
2022-09-15T14:26:18.393Z,30.46
2022-09-15T14:28:56.564Z,30.47
2022-09-15T14:31:33.643Z,30.54
2022-09-15T14:34:02.990Z,30.51
2022-09-15T14:36:32.812Z,30.58
2022-09-15T14:39:21.013Z,30.51
2022-09-15T14:41:50.033Z,30.53
2022-09-15T14:47:29.265Z,30.49
2022-09-15T14:50:17.590Z,30.54
2022-09-15T14:52:48.909Z,30.55
2022-09-15T14:55:32.527Z,30.52
2022-09-15T14:58:21.078Z,30.39
2022-09-15T15:01:04.684Z,30.42
2022-09-15T15:03:35.005Z,30.46
2022-09-15T15:06:30.760Z,30.45
2022-09-15T15:09:03.902Z,30.46
2022-09-15T15:11:33.659Z,30.45
2022-09-15T15:14:02.696Z,30.45
2022-09-15T15:16:31.641Z,30.43
2022-09-15T15:18:59.567Z,30.52
2022-09-15T15:21:41.016Z,30.59
2022-09-15T15:24:14.228Z,30.53
2022-09-15T15:26:43.510Z,30.59
2022-09-15T15:29:43.428Z,30.52
2022-09-15T15:32:16.794Z,30.46
2022-09-15T15:35:01.734Z,30.44
2022-09-15T15:37:34.435Z,30.43
2022-09-15T15:40:05.558Z,30.42
2022-09-15T15:42:33.204Z,30.48
2022-09-15T15:45:09.659Z,30.48
2022-09-15T15:47:37.566Z,30.45
2022-09-15T15:50:24.985Z,30.33
2022-09-15T15:52:53.259Z,30.39
2022-09-15T15:55:27.142Z,30.40
2022-09-15T15:57:56.346Z,30.48
2022-09-15T16:00:26.762Z,30.49
2022-09-15T16:02:54.364Z,30.45
2022-09-15T16:05:26.181Z,30.40
2022-09-15T16:07:57.060Z,30.28
2022-09-15T16:10:28.572Z,30.40
2022-09-15T16:12:56.376Z,30.42
2022-09-15T16:15:24.101Z,30.34
2022-09-15T16:17:51.375Z,30.39
2022-09-15T16:20:19.989Z,30.44
2022-09-15T16:22:47.174Z,30.50
2022-09-15T16:25:31.565Z,30.46
2022-09-15T16:27:59.049Z,30.43
2022-09-15T16:30:26.272Z,30.49
2022-09-15T16:32:53.523Z,30.51
2022-09-15T16:35:30.658Z,30.58
2022-09-15T16:37:58.006Z,30.48
2022-09-15T16:40:25.641Z,30.50
2022-09-15T16:42:56.143Z,30.43
2022-09-15T16:45:39.915Z,30.37
2022-09-15T16:48:09.682Z,30.28
2022-09-15T16:50:40.160Z,30.21
2022-09-15T16:53:18.238Z,30.21
2022-09-15T16:55:51.278Z,30.14
2022-09-15T16:58:20.630Z,30.08
2022-09-15T17:00:49.801Z,30.02
2022-09-15T17:03:20.213Z,29.88
2022-09-15T17:05:52.578Z,29.82
2022-09-15T17:08:22.584Z,29.79
2022-09-15T17:10:50.843Z,29.71
2022-09-15T17:13:25.080Z,29.58
2022-09-15T17:15:59.802Z,29.52
2022-09-15T17:18:28.400Z,29.38
2022-09-15T17:21:05.076Z,29.30
2022-09-15T17:23:37.329Z,29.24
2022-09-15T17:26:09.955Z,29.17
2022-09-15T17:28:37.843Z,29.12
2022-09-15T17:31:07.191Z,29.11
2022-09-15T17:33:34.540Z,29.12
2022-09-15T17:36:02.261Z,29.12
2022-09-15T17:38:30.308Z,29.08
2022-09-15T17:40:58.210Z,29.07
2022-09-15T17:43:28.552Z,29.04
2022-09-15T17:45:56.774Z,29.00
2022-09-15T17:48:24.624Z,29.01
2022-09-15T17:50:52.677Z,28.99
2022-09-15T17:53:29.265Z,28.96
2022-09-15T17:55:57.232Z,28.92
2022-09-15T17:58:31.713Z,28.92
2022-09-15T18:01:02.203Z,28.94
2022-09-15T18:03:36.127Z,28.90
2022-09-15T18:06:09.050Z,28.84
2022-09-15T18:08:37.277Z,28.85
2022-09-15T18:11:06.401Z,28.82
2022-09-15T18:13:34.369Z,28.81
2022-09-15T18:16:07.272Z,28.76
2022-09-15T18:18:34.863Z,28.79
2022-09-15T18:21:07.715Z,28.70
2022-09-15T18:23:35.306Z,28.71
2022-09-15T18:26:02.506Z,28.72
2022-09-15T18:28:29.760Z,28.70
2022-09-15T18:30:57.279Z,28.71
2022-09-15T18:33:26.918Z,28.69
2022-09-15T18:35:59.231Z,28.59
2022-09-15T18:38:26.967Z,28.60
2022-09-15T18:40:59.746Z,28.60
2022-09-15T18:43:28.021Z,28.56
2022-09-15T18:46:02.152Z,28.57
2022-09-15T18:48:30.520Z,28.57
2022-09-15T18:50:59.016Z,28.57
2022-09-15T18:53:29.326Z,28.53
2022-09-15T18:55:57.267Z,28.54
2022-09-15T18:58:25.048Z,28.54
2022-09-15T19:01:01.542Z,28.55
2022-09-15T19:03:28.803Z,28.56
2022-09-15T19:05:56.441Z,28.54
2022-09-15T19:08:24.531Z,28.54
2022-09-15T19:11:00.569Z,28.54
2022-09-15T19:13:29.223Z,28.54
2022-09-15T19:16:02.420Z,28.48
2022-09-15T19:18:30.343Z,28.54
2022-09-15T19:21:11.218Z,28.54
2022-09-15T19:23:39.496Z,28.55
2022-09-15T19:26:09.387Z,28.54
2022-09-15T19:28:36.725Z,28.53
2022-09-15T19:31:04.381Z,28.53
2022-09-15T19:33:38.312Z,28.51
2022-09-15T19:36:26.766Z,28.52
2022-09-15T19:38:57.073Z,28.53
2022-09-15T19:41:24.877Z,28.53
2022-09-15T19:43:52.638Z,28.51
2022-09-15T19:46:24.545Z,28.51
2022-09-15T19:48:53.366Z,28.51
2022-09-15T19:51:22.016Z,28.49
2022-09-15T19:53:49.511Z,28.47
2022-09-15T19:56:22.304Z,28.46
2022-09-15T19:58:52.970Z,28.45
2022-09-15T20:01:20.757Z,28.41
2022-09-15T20:03:49.611Z,28.33
2022-09-15T20:06:17.356Z,28.41
2022-09-15T20:08:47.255Z,28.41
2022-09-15T20:11:15.926Z,28.41
2022-09-15T20:13:44.273Z,28.43
2022-09-15T20:16:18.126Z,28.39
2022-09-15T20:18:55.526Z,28.38
2022-09-15T20:21:50.884Z,28.33
2022-09-15T20:24:20.676Z,28.31
2022-09-15T20:26:48.813Z,28.30
2022-09-15T20:29:26.554Z,28.29
2022-09-15T20:32:07.822Z,28.28
2022-09-15T20:34:39.970Z,28.29
2022-09-15T20:37:09.193Z,28.26
2022-09-15T20:39:45.543Z,28.28
2022-09-15T20:42:16.675Z,28.24
2022-09-15T20:44:46.465Z,28.25
2022-09-15T20:47:19.311Z,28.23
2022-09-15T20:49:49.311Z,28.17
2022-09-15T20:52:17.236Z,28.20
2022-09-15T20:54:44.985Z,28.19
2022-09-15T20:57:12.705Z,28.23
2022-09-15T20:59:40.023Z,28.22
2022-09-15T21:02:07.866Z,28.18
2022-09-15T21:04:35.612Z,28.17
2022-09-15T21:07:02.811Z,28.19
2022-09-15T21:09:30.072Z,28.17
2022-09-15T21:11:57.855Z,28.16
2022-09-15T21:14:25.483Z,28.17
2022-09-15T21:16:53.191Z,28.14
2022-09-15T21:19:20.754Z,28.17
2022-09-15T21:21:48.300Z,28.12
2022-09-15T21:24:16.070Z,28.14
2022-09-15T21:27:02.824Z,28.14
2022-09-15T21:29:30.867Z,28.11
2022-09-15T21:31:58.418Z,28.14
2022-09-15T21:34:26.601Z,28.12
2022-09-15T21:36:54.096Z,28.11
2022-09-15T21:39:21.957Z,28.12
2022-09-15T21:41:50.124Z,28.13
2022-09-15T21:44:17.557Z,28.14
2022-09-15T21:46:52.209Z,28.11
2022-09-15T21:49:21.066Z,28.13
2022-09-15T21:51:49.075Z,28.11
2022-09-15T21:54:16.985Z,28.12
2022-09-15T21:56:48.731Z,28.10
2022-09-15T21:59:22.708Z,28.08
2022-09-15T22:01:59.613Z,28.06
2022-09-15T22:04:27.378Z,28.05
2022-09-15T22:06:54.976Z,27.97
2022-09-15T22:09:24.048Z,27.93
2022-09-15T22:11:51.610Z,27.80
2022-09-15T22:14:19.661Z,27.84
2022-09-15T22:16:47.717Z,27.76
2022-09-15T22:19:15.507Z,27.70
2022-09-15T22:21:48.196Z,27.62
2022-09-15T22:24:27.149Z,27.53
2022-09-15T22:26:56.144Z,27.46
2022-09-15T22:29:23.621Z,27.47
2022-09-15T22:31:52.110Z,27.48
2022-09-15T22:34:20.454Z,27.43
2022-09-15T22:36:47.919Z,27.39
2022-09-15T22:39:17.399Z,27.42
2022-09-15T22:41:44.723Z,27.39
2022-09-15T22:44:19.556Z,27.45
2022-09-15T22:46:47.050Z,27.38
2022-09-15T22:49:14.441Z,27.29
2022-09-15T22:51:41.893Z,27.21
2022-09-15T22:54:10.955Z,27.14
2022-09-15T22:56:39.041Z,27.19
2022-09-15T22:59:06.681Z,27.25
2022-09-15T23:01:36.238Z,27.13
2022-09-15T23:04:04.078Z,27.12
2022-09-15T23:06:34.004Z,27.07
2022-09-15T23:09:04.811Z,26.99
2022-09-15T23:11:35.340Z,26.96
2022-09-15T23:14:02.941Z,26.96
2022-09-15T23:16:31.229Z,27.02
2022-09-15T23:18:59.454Z,26.97
2022-09-15T23:21:26.931Z,26.94
2022-09-15T23:23:55.033Z,26.88
2022-09-15T23:26:24.418Z,26.87
2022-09-15T23:28:52.872Z,26.83
2022-09-15T23:31:21.877Z,26.78
2022-09-15T23:33:49.555Z,26.79
2022-09-15T23:36:21.497Z,26.82
2022-09-15T23:38:49.635Z,26.82
2022-09-15T23:41:18.223Z,26.81
2022-09-15T23:43:46.561Z,26.72
2022-09-15T23:46:14.228Z,26.68
2022-09-15T23:48:42.679Z,26.66
2022-09-15T23:51:10.080Z,26.64
2022-09-15T23:53:37.881Z,26.62
2022-09-15T23:56:05.807Z,26.62
2022-09-15T23:58:33.293Z,26.58
